Scroll down
FLIGHT INFORMATION
Southern Air

SOO2201

At Arrival Gate

SEQM
 SAEZ
DATE: 2020-09-02
GATE:  -
GATE DEPARTURE: 18:55
TAKEOFF: 19:08
DATE: 2020-09-03
GATE:  -
LANDING: 00:11
GATE ARRIVAL: 00:16
FLIGHT DATA
Speed: 
494 kts
Altitude: 
33,049 ft
Stage Length: 
2,361.1 nm
Block Time: 
5.4 hrs
Flight Time: 
5.1 hrs
Fuel Used: 
32,535 lb
Cleared Route: SEQM VURIS PAV VUKOK PUL URC ILMOX JUL ARSUN UBSAS USTOT NAXET JUJ ASODO VADUN GAVEX ESPER DADMI ERE ROMUR ISOPO SNT SAEZ
TRACK DATA
50,000 ft 1,000 kts
AIRCRAFT INFO AND CUMULATIVE STATS
Aircraft Type: 
B738BCF
Registration: 
SELCAL: 
MSN/LN: 
32884 / 1181
Operator: 
Total Flights: 
7
Total Block Time: 
26 hrs
Total Flight Time: 
25.6 hrs
Total Fuel Time: 
122,027 lb
DATALINK LOG | Newest first | Current as of: 2020-11-29 00:49:42
LABEL SEQUENCE CONTENT Dn/Up
QD191900:16 7.3▼ Dn
QC141400:11▼ Dn
2U2649SAEZ 022300Z 15013G26KT 120V880 2000 -RA BR OVC008 10/10 Q1010 NOSIG▲ Up
2S2830SAEZ▼ Dn
2U4336SAEZ 022200Z 15013G25KT 1500 -RA BR OVC006 11/10 Q1010 NOSIG▲ Up
2S4549SAEZ▼ Dn
QB112019:08▼ Dn
QA580718:55 40▼ Dn
A34305CLEARED TO SAEZ VIA VURIS2 VURIS UW23 PAV VUKOK PUL URC UV11 JUL ARSUN UBSAS UM776 JUJ UT672 ISOPO SNT SNT6A. SQUAWK .▲ Up
Q03952[LINK ACK]▲ Up
Q03952[LINK TEST]▼ Dn


AIRCRAFT HISTORY
FLIGHT DATE FLIGHT NO. ORIGIN DESTINATION CLEARED ROUTE BLOCK TIME FLIGHT TIME FUEL USED PILOT
2020-10-22SOO9S2201LEMD EGKK LEMD SIE EDIGO DGO BLV MAPAX NENEM PEXOD DESAB TEPRA NORMI MOKOR TERPO GODAN REN UPALO REVTU ODREP GOKTU VASUX EGKK2 hrs1.7 hrs9,208 lbRoberto Stopnicki
2020-10-19SOO2201LXGB LEMD LXGB PIMOS MGA BLN MORAL LEMD1.7 hrs1.4 hrs10,465 lbRoberto Stopnicki
2020-09-11SOO2201GOOY LXGB GOOY 2410N BULIS DIVUX TOPMA MAK TNG LXGB3.7 hrs3.6 hrs24,722 lbRoberto Stopnicki
2020-09-08SOO2201SBRF GOOY SBRF MOVLA AMBET VURBI MOXIP BUGAT REGIS ARUNU BUTAP KODOS TAROT INIRO BOMSA DS GATRO RW014.6 hrs4.4 hrs30,200 lbRoberto Stopnicki
2020-09-06SOO2201SAEZ SBRF SAEZ DORVO PABOT LOMID ANRUP MLO OGRUN DEVOT ABELA OPROR NELOX ITBEB TIMVI UTMUD EGBIP UGREV DOKPU EKUBI EGDED ANDEB EVPIB DOKRO FEITO AKNUB VUDAV BITAK NISBO KOVGO MIA VUPIP SEGLI MOLSU UKENU DOGSU SASBU OPLOX SATBU DAGEL XUVUD SGR BIDEV NAXOV IRUMI ESLIB MEDIT RUBEN SBRF4.8 hrs4.6 hrs26,676 lbRoberto Stopnicki
2020-09-02SOO2201SEQM SAEZ SEQM VURIS PAV VUKOK PUL URC ILMOX JUL ARSUN UBSAS USTOT NAXET JUJ ASODO VADUN GAVEX ESPER DADMI ERE ROMUR ISOPO SNT SAEZ5.4 hrs5.1 hrs32,535 lbRoberto Stopnicki
2020-08-09SOO2311KIAH SEQM KIAH TTAPS BOTLL FLYZA PPALE VUH KELPP KEHLI SUVUM LEVAT RORLA ITLOM IGTOB MUXOG AXEVU VIGTU VOBED CZM ITAKU SIGMA AMESI TEKUG SPP MORLI TBG MILAT TOKUT TCO ENSOL NEGAL QIT SEQM5.1 hrs4.8 hrs27,643 lbMichael Roth